sensor_id;sensor_type;location;lat;lon;timestamp;pressure;altitude;pressure_sealevel;temperature;humidity
43878;BME280;29815;48.184;11.268;2023-01-25T00:00:32;97000.38;;;-0.04;100.00
43878;BME280;29815;48.184;11.268;2023-01-25T00:03:01;96991.44;;;-0.03;100.00
43878;BME280;29815;48.184;11.268;2023-01-25T00:05:32;96996.09;;;-0.05;100.00
43878;BME280;29815;48.184;11.268;2023-01-25T00:08:01;96992.44;;;-0.04;100.00
43878;BME280;29815;48.184;11.268;2023-01-25T00:10:31;96993.09;;;-0.02;100.00
43878;BME280;29815;48.184;11.268;2023-01-25T00:13:00;96989.78;;;-0.04;100.00
43878;BME280;29815;48.184;11.268;2023-01-25T00:15:33;96991.44;;;-0.03;100.00
43878;BME280;29815;48.184;11.268;2023-01-25T00:18:03;96986.97;;;-0.02;100.00
43878;BME280;29815;48.184;11.268;2023-01-25T00:20:34;96984.34;;;-0.02;100.00
43878;BME280;29815;48.184;11.268;2023-01-25T00:23:03;96982.53;;;-0.02;100.00
43878;BME280;29815;48.184;11.268;2023-01-25T00:25:32;96986.31;;;-0.04;100.00
43878;BME280;29815;48.184;11.268;2023-01-25T00:28:02;96985.50;;;-0.05;100.00
43878;BME280;29815;48.184;11.268;2023-01-25T00:38:30;96987.81;;;-0.02;100.00
43878;BME280;29815;48.184;11.268;2023-01-25T00:41:02;96986.31;;;-0.04;100.00
43878;BME280;29815;48.184;11.268;2023-01-25T00:43:32;96987.31;;;-0.05;100.00
43878;BME280;29815;48.184;11.268;2023-01-25T00:46:01;96986.50;;;-0.06;100.00
43878;BME280;29815;48.184;11.268;2023-01-25T00:48:31;96988.47;;;-0.08;100.00
43878;BME280;29815;48.184;11.268;2023-01-25T00:51:01;96980.88;;;-0.11;100.00
43878;BME280;29815;48.184;11.268;2023-01-25T00:53:32;96982.53;;;-0.10;100.00
43878;BME280;29815;48.184;11.268;2023-01-25T00:56:03;96983.69;;;-0.12;100.00
43878;BME280;29815;48.184;11.268;2023-01-25T00:58:33;96980.88;;;-0.11;100.00
43878;BME280;29815;48.184;11.268;2023-01-25T01:01:04;96987.00;;;-0.10;100.00
43878;BME280;29815;48.184;11.268;2023-01-25T01:03:34;96985.16;;;-0.10;100.00
43878;BME280;29815;48.184;11.268;2023-01-25T01:06:41;96982.69;;;-0.11;100.00
43878;BME280;29815;48.184;11.268;2023-01-25T01:09:50;96985.34;;;-0.11;100.00
43878;BME280;29815;48.184;11.268;2023-01-25T01:21:03;96965.00;;;-0.11;100.00
43878;BME280;29815;48.184;11.268;2023-01-25T01:23:35;96977.41;;;-0.11;100.00
43878;BME280;29815;48.184;11.268;2023-01-25T01:26:10;96970.44;;;-0.12;100.00
43878;BME280;29815;48.184;11.268;2023-01-25T01:28:41;96965.81;;;-0.10;100.00
43878;BME280;29815;48.184;11.268;2023-01-25T01:31:14;96971.78;;;-0.08;100.00
43878;BME280;29815;48.184;11.268;2023-01-25T01:33:52;96966.66;;;-0.10;100.00
43878;BME280;29815;48.184;11.268;2023-01-25T01:36:26;96965.00;;;-0.11;100.00
43878;BME280;29815;48.184;11.268;2023-01-25T01:38:58;96965.66;;;-0.09;100.00
43878;BME280;29815;48.184;11.268;2023-01-25T01:41:29;96963.19;;;-0.10;100.00
43878;BME280;29815;48.184;11.268;2023-01-25T01:43:59;96960.03;;;-0.06;100.00
43878;BME280;29815;48.184;11.268;2023-01-25T01:46:33;96963.19;;;-0.10;100.00
43878;BME280;29815;48.184;11.268;2023-01-25T01:49:13;96963.34;;;-0.12;100.00
43878;BME280;29815;48.184;11.268;2023-01-25T01:51:48;96964.66;;;-0.16;100.00
43878;BME280;29815;48.184;11.268;2023-01-25T01:54:29;96955.91;;;-0.16;100.00
43878;BME280;29815;48.184;11.268;2023-01-25T01:57:08;96956.72;;;-0.16;100.00
43878;BME280;29815;48.184;11.268;2023-01-25T01:59:46;96962.69;;;-0.14;100.00
43878;BME280;29815;48.184;11.268;2023-01-25T02:02:18;96955.56;;;-0.13;100.00
43878;BME280;29815;48.184;11.268;2023-01-25T02:04:49;96953.75;;;-0.13;100.00
43878;BME280;29815;48.184;11.268;2023-01-25T02:07:23;96957.38;;;-0.14;100.00
43878;BME280;29815;48.184;11.268;2023-01-25T02:09:59;96963.50;;;-0.13;100.00
43878;BME280;29815;48.184;11.268;2023-01-25T02:12:31;96969.97;;;-0.16;100.00
43878;BME280;29815;48.184;11.268;2023-01-25T02:15:01;96965.00;;;-0.19;100.00
43878;BME280;29815;48.184;11.268;2023-01-25T02:17:34;96961.69;;;-0.21;100.00
43878;BME280;29815;48.184;11.268;2023-01-25T02:20:11;96962.19;;;-0.17;100.00
43878;BME280;29815;48.184;11.268;2023-01-25T02:22:50;96966.16;;;-0.21;100.00
43878;BME280;29815;48.184;11.268;2023-01-25T02:25:25;96967.31;;;-0.24;100.00
43878;BME280;29815;48.184;11.268;2023-01-25T02:28:06;96955.09;;;-0.25;100.00
43878;BME280;29815;48.184;11.268;2023-01-25T02:30:38;96965.00;;;-0.27;100.00
43878;BME280;29815;48.184;11.268;2023-01-25T02:33:09;96964.22;;;-0.27;100.00
43878;BME280;29815;48.184;11.268;2023-01-25T02:35:42;96965.38;;;-0.30;100.00
43878;BME280;29815;48.184;11.268;2023-01-25T02:38:15;96959.25;;;-0.30;100.00
43878;BME280;29815;48.184;11.268;2023-01-25T02:40:51;96952.13;;;-0.30;100.00
43878;BME280;29815;48.184;11.268;2023-01-25T02:43:26;96957.59;;;-0.31;100.00
43878;BME280;29815;48.184;11.268;2023-01-25T02:46:02;96959.59;;;-0.33;100.00
43878;BME280;29815;48.184;11.268;2023-01-25T02:48:37;96956.94;;;-0.33;100.00
43878;BME280;29815;48.184;11.268;2023-01-25T02:51:08;96951.31;;;-0.30;100.00
43878;BME280;29815;48.184;11.268;2023-01-25T02:53:40;96954.13;;;-0.32;100.00
43878;BME280;29815;48.184;11.268;2023-01-25T02:56:11;96945.84;;;-0.29;100.00
43878;BME280;29815;48.184;11.268;2023-01-25T02:58:41;96941.56;;;-0.30;100.00
43878;BME280;29815;48.184;11.268;2023-01-25T03:01:12;96942.56;;;-0.31;100.00
43878;BME280;29815;48.184;11.268;2023-01-25T03:03:45;96952.13;;;-0.30;100.00
43878;BME280;29815;48.184;11.268;2023-01-25T03:06:17;96943.53;;;-0.32;100.00
43878;BME280;29815;48.184;11.268;2023-01-25T03:08:47;96940.41;;;-0.36;100.00
43878;BME280;29815;48.184;11.268;2023-01-25T03:11:18;96941.06;;;-0.33;100.00
43878;BME280;29815;48.184;11.268;2023-01-25T03:13:49;96938.41;;;-0.33;100.00
43878;BME280;29815;48.184;11.268;2023-01-25T03:16:19;96930.81;;;-0.37;100.00
43878;BME280;29815;48.184;11.268;2023-01-25T03:18:52;96931.97;;;-0.39;100.00
43878;BME280;29815;48.184;11.268;2023-01-25T03:21:24;96936.78;;;-0.35;100.00
43878;BME280;29815;48.184;11.268;2023-01-25T03:23:56;96928.16;;;-0.37;100.00
43878;BME280;29815;48.184;11.268;2023-01-25T03:26:37;96933.28;;;-0.35;100.00
43878;BME280;29815;48.184;11.268;2023-01-25T03:29:24;96928.00;;;-0.35;100.00
43878;BME280;29815;48.184;11.268;2023-01-25T03:31:54;96923.88;;;-0.38;100.00
43878;BME280;29815;48.184;11.268;2023-01-25T03:34:24;96925.38;;;-0.35;100.00
43878;BME280;29815;48.184;11.268;2023-01-25T03:36:53;96921.88;;;-0.36;100.00
43878;BME280;29815;48.184;11.268;2023-01-25T03:39:24;96915.59;;;-0.35;100.00
43878;BME280;29815;48.184;11.268;2023-01-25T03:41:55;96915.78;;;-0.36;100.00
43878;BME280;29815;48.184;11.268;2023-01-25T03:44:25;96909.66;;;-0.37;100.00
43878;BME280;29815;48.184;11.268;2023-01-25T03:46:55;96915.78;;;-0.36;100.00
43878;BME280;29815;48.184;11.268;2023-01-25T03:49:29;96912.97;;;-0.35;100.00
43878;BME280;29815;48.184;11.268;2023-01-25T03:51:58;96912.13;;;-0.35;100.00
43878;BME280;29815;48.184;11.268;2023-01-25T03:54:35;96911.97;;;-0.33;100.00
43878;BME280;29815;48.184;11.268;2023-01-25T03:57:12;96913.44;;;-0.31;100.00
43878;BME280;29815;48.184;11.268;2023-01-25T04:00:00;96909.16;;;-0.32;100.00
43878;BME280;29815;48.184;11.268;2023-01-25T04:03:00;96912.63;;;-0.31;100.00
43878;BME280;29815;48.184;11.268;2023-01-25T04:05:30;96901.88;;;-0.30;100.00
43878;BME280;29815;48.184;11.268;2023-01-25T04:08:02;96904.69;;;-0.31;100.00
43878;BME280;29815;48.184;11.268;2023-01-25T04:10:38;96905.53;;;-0.31;100.00
43878;BME280;29815;48.184;11.268;2023-01-25T04:13:10;96909.00;;;-0.30;100.00
43878;BME280;29815;48.184;11.268;2023-01-25T04:15:45;96904.69;;;-0.31;100.00
43878;BME280;29815;48.184;11.268;2023-01-25T04:18:26;96911.63;;;-0.30;100.00
43878;BME280;29815;48.184;11.268;2023-01-25T04:20:56;96915.94;;;-0.29;100.00
43878;BME280;29815;48.184;11.268;2023-01-25T04:23:26;96910.66;;;-0.29;100.00
43878;BME280;29815;48.184;11.268;2023-01-25T04:26:23;96909.97;;;-0.31;100.00
43878;BME280;29815;48.184;11.268;2023-01-25T04:28:59;96908.31;;;-0.32;100.00
43878;BME280;29815;48.184;11.268;2023-01-25T04:31:28;96902.22;;;-0.33;100.00
43878;BME280;29815;48.184;11.268;2023-01-25T04:34:00;96900.72;;;-0.36;100.00
43878;BME280;29815;48.184;11.268;2023-01-25T04:36:30;96895.09;;;-0.32;100.00
43878;BME280;29815;48.184;11.268;2023-01-25T04:39:00;96899.56;;;-0.33;100.00
43878;BME280;29815;48.184;11.268;2023-01-25T04:41:29;96902.22;;;-0.33;100.00
43878;BME280;29815;48.184;11.268;2023-01-25T04:44:00;96897.91;;;-0.34;100.00
43878;BME280;29815;48.184;11.268;2023-01-25T04:46:30;96890.16;;;-0.36;100.00
43878;BME280;29815;48.184;11.268;2023-01-25T04:49:29;96888.00;;;-0.32;100.00
43878;BME280;29815;48.184;11.268;2023-01-25T04:51:59;96887.16;;;-0.32;100.00
43878;BME280;29815;48.184;11.268;2023-01-25T04:54:29;96883.53;;;-0.31;100.00
43878;BME280;29815;48.184;11.268;2023-01-25T04:56:58;96880.88;;;-0.31;100.00
43878;BME280;29815;48.184;11.268;2023-01-25T04:59:29;96872.47;;;-0.35;100.00
43878;BME280;29815;48.184;11.268;2023-01-25T05:01:59;96866.34;;;-0.36;100.00
43878;BME280;29815;48.184;11.268;2023-01-25T05:04:29;96869.66;;;-0.33;100.00
43878;BME280;29815;48.184;11.268;2023-01-25T05:06:59;96877.59;;;-0.33;100.00
43878;BME280;29815;48.184;11.268;2023-01-25T05:09:28;96876.59;;;-0.32;100.00
43878;BME280;29815;48.184;11.268;2023-01-25T05:11:58;96878.41;;;-0.33;100.00
43878;BME280;29815;48.184;11.268;2023-01-25T05:14:38;96871.97;;;-0.30;100.00
43878;BME280;29815;48.184;11.268;2023-01-25T05:17:08;96867.81;;;-0.33;100.00
43878;BME280;29815;48.184;11.268;2023-01-25T05:19:38;96862.53;;;-0.33;100.00
43878;BME280;29815;48.184;11.268;2023-01-25T05:22:13;96855.09;;;-0.38;100.00
43878;BME280;29815;48.184;11.268;2023-01-25T05:24:48;96860.06;;;-0.35;100.00
43878;BME280;29815;48.184;11.268;2023-01-25T05:27:19;96858.41;;;-0.36;100.00
43878;BME280;29815;48.184;11.268;2023-01-25T05:30:20;96852.78;;;-0.32;100.00
43878;BME280;29815;48.184;11.268;2023-01-25T05:32:58;96854.59;;;-0.33;100.00
43878;BME280;29815;48.184;11.268;2023-01-25T05:35:28;96850.97;;;-0.32;100.00
43878;BME280;29815;48.184;11.268;2023-01-25T05:37:58;96845.84;;;-0.33;100.00
43878;BME280;29815;48.184;11.268;2023-01-25T05:40:32;96852.78;;;-0.32;100.00
43878;BME280;29815;48.184;11.268;2023-01-25T05:43:02;96845.34;;;-0.37;100.00
43878;BME280;29815;48.184;11.268;2023-01-25T05:45:33;96860.06;;;-0.35;100.00
43878;BME280;29815;48.184;11.268;2023-01-25T05:48:04;96863.38;;;-0.32;100.00
43878;BME280;29815;48.184;11.268;2023-01-25T05:50:35;96873.28;;;-0.35;100.00
43878;BME280;29815;48.184;11.268;2023-01-25T05:53:09;96869.00;;;-0.36;100.00
43878;BME280;29815;48.184;11.268;2023-01-25T05:55:40;96865.50;;;-0.36;100.00
43878;BME280;29815;48.184;11.268;2023-01-25T05:58:14;96865.19;;;-0.41;100.00
43878;BME280;29815;48.184;11.268;2023-01-25T06:00:45;96867.00;;;-0.42;100.00
43878;BME280;29815;48.184;11.268;2023-01-25T06:03:25;96869.00;;;-0.44;100.00
43878;BME280;29815;48.184;11.268;2023-01-25T06:06:25;96866.19;;;-0.42;100.00
43878;BME280;29815;48.184;11.268;2023-01-25T06:08:55;96860.06;;;-0.43;100.00
43878;BME280;29815;48.184;11.268;2023-01-25T06:11:25;96864.69;;;-0.45;100.00
43878;BME280;29815;48.184;11.268;2023-01-25T06:13:55;96857.75;;;-0.46;100.00
43878;BME280;29815;48.184;11.268;2023-01-25T06:16:27;96850.16;;;-0.49;100.00
43878;BME280;29815;48.184;11.268;2023-01-25T06:19:22;96850.66;;;-0.45;100.00
43878;BME280;29815;48.184;11.268;2023-01-25T06:22:06;96851.16;;;-0.42;100.00
43878;BME280;29815;48.184;11.268;2023-01-25T06:24:36;96850.66;;;-0.45;100.00
43878;BME280;29815;48.184;11.268;2023-01-25T06:27:06;96843.06;;;-0.48;100.00
43878;BME280;29815;48.184;11.268;2023-01-25T06:29:35;96837.94;;;-0.50;100.00
43878;BME280;29815;48.184;11.268;2023-01-25T06:37:05;96841.06;;;-0.46;100.00
43878;BME280;29815;48.184;11.268;2023-01-25T06:39:34;96832.81;;;-0.43;100.00
43878;BME280;29815;48.184;11.268;2023-01-25T06:42:04;96833.13;;;-0.46;100.00
43878;BME280;29815;48.184;11.268;2023-01-25T06:44:35;96832.66;;;-0.50;100.00
43878;BME280;29815;48.184;11.268;2023-01-25T06:47:04;96834.28;;;-0.49;100.00
43878;BME280;29815;48.184;11.268;2023-01-25T06:49:36;96824.72;;;-0.50;100.00
43878;BME280;29815;48.184;11.268;2023-01-25T06:52:07;96822.06;;;-0.50;100.00
43878;BME280;29815;48.184;11.268;2023-01-25T06:54:37;96829.00;;;-0.49;100.00
43878;BME280;29815;48.184;11.268;2023-01-25T06:57:07;96828.53;;;-0.52;100.00
43878;BME280;29815;48.184;11.268;2023-01-25T06:59:37;96820.41;;;-0.51;100.00
43878;BME280;29815;48.184;11.268;2023-01-25T07:02:09;96812.66;;;-0.52;100.00
43878;BME280;29815;48.184;11.268;2023-01-25T07:04:42;96819.59;;;-0.51;100.00
43878;BME280;29815;48.184;11.268;2023-01-25T07:07:45;96809.66;;;-0.49;100.00
43878;BME280;29815;48.184;11.268;2023-01-25T07:10:15;96810.50;;;-0.49;100.00
43878;BME280;29815;48.184;11.268;2023-01-25T07:12:44;96802.91;;;-0.52;100.00
43878;BME280;29815;48.184;11.268;2023-01-25T07:15:14;96803.22;;;-0.47;100.00
43878;BME280;29815;48.184;11.268;2023-01-25T07:17:44;96805.69;;;-0.45;100.00
43878;BME280;29815;48.184;11.268;2023-01-25T07:20:14;96799.59;;;-0.46;100.00
43878;BME280;29815;48.184;11.268;2023-01-25T07:22:46;96803.72;;;-0.43;100.00
43878;BME280;29815;48.184;11.268;2023-01-25T07:26:10;96805.53;;;-0.44;100.00
43878;BME280;29815;48.184;11.268;2023-01-25T07:28:44;96794.13;;;-0.44;100.00
43878;BME280;29815;48.184;11.268;2023-01-25T07:35:03;96792.97;;;-0.42;100.00
43878;BME280;29815;48.184;11.268;2023-01-25T07:37:34;96797.59;;;-0.44;100.00
43878;BME280;29815;48.184;11.268;2023-01-25T07:40:12;96793.94;;;-0.43;100.00
43878;BME280;29815;48.184;11.268;2023-01-25T07:42:43;96802.72;;;-0.42;100.00
43878;BME280;29815;48.184;11.268;2023-01-25T07:45:14;96790.81;;;-0.46;100.00
43878;BME280;29815;48.184;11.268;2023-01-25T07:47:45;96793.13;;;-0.43;100.00
43878;BME280;29815;48.184;11.268;2023-01-25T07:50:15;96791.47;;;-0.44;100.00
43878;BME280;29815;48.184;11.268;2023-01-25T07:52:45;96790.31;;;-0.42;100.00
43878;BME280;29815;48.184;11.268;2023-01-25T07:55:17;96791.97;;;-0.41;100.00
43878;BME280;29815;48.184;11.268;2023-01-25T07:57:48;96802.88;;;-0.36;100.00
43878;BME280;29815;48.184;11.268;2023-01-25T08:00:18;96798.41;;;-0.35;100.00
43878;BME280;29815;48.184;11.268;2023-01-25T08:02:52;96806.16;;;-0.33;100.00
43878;BME280;29815;48.184;11.268;2023-01-25T08:05:23;96801.69;;;-0.33;100.00
43878;BME280;29815;48.184;11.268;2023-01-25T08:07:53;96813.09;;;-0.32;100.00
43878;BME280;29815;48.184;11.268;2023-01-25T08:10:25;96808.81;;;-0.33;100.00
43878;BME280;29815;48.184;11.268;2023-01-25T08:13:03;96814.91;;;-0.33;100.00
43878;BME280;29815;48.184;11.268;2023-01-25T08:16:00;96810.13;;;-0.29;100.00
43878;BME280;29815;48.184;11.268;2023-01-25T08:18:33;96805.81;;;-0.30;100.00
43878;BME280;29815;48.184;11.268;2023-01-25T08:21:04;96809.47;;;-0.31;100.00
43878;BME280;29815;48.184;11.268;2023-01-25T08:29:00;96797.22;;;-0.32;100.00
43878;BME280;29815;48.184;11.268;2023-01-25T08:31:33;96797.06;;;-0.31;100.00
43878;BME280;29815;48.184;11.268;2023-01-25T08:34:04;96792.59;;;-0.30;100.00
43878;BME280;29815;48.184;11.268;2023-01-25T08:48:57;96783.34;;;-0.35;100.00
43878;BME280;29815;48.184;11.268;2023-01-25T08:57:12;96793.09;;;-0.35;100.00
43878;BME280;29815;48.184;11.268;2023-01-25T08:59:47;96782.88;;;-0.38;100.00
43878;BME280;29815;48.184;11.268;2023-01-25T09:02:21;96788.00;;;-0.37;100.00
43878;BME280;29815;48.184;11.268;2023-01-25T09:04:58;96778.41;;;-0.38;100.00
43878;BME280;29815;48.184;11.268;2023-01-25T09:16:42;96780.41;;;-0.48;100.00
43878;BME280;29815;48.184;11.268;2023-01-25T09:19:17;96777.59;;;-0.46;100.00
43878;BME280;29815;48.184;11.268;2023-01-25T09:21:50;96773.78;;;-0.44;100.00
43878;BME280;29815;48.184;11.268;2023-01-25T09:24:20;96777.09;;;-0.42;100.00
43878;BME280;29815;48.184;11.268;2023-01-25T09:26:50;96773.13;;;-0.38;100.00
43878;BME280;29815;48.184;11.268;2023-01-25T09:29:27;96775.09;;;-0.40;100.00
43878;BME280;29815;48.184;11.268;2023-01-25T09:31:56;96768.81;;;-0.39;100.00
43878;BME280;29815;48.184;11.268;2023-01-25T09:34:35;96768.00;;;-0.39;100.00
43878;BME280;29815;48.184;11.268;2023-01-25T09:37:05;96771.28;;;-0.37;100.00
43878;BME280;29815;48.184;11.268;2023-01-25T09:39:35;96763.34;;;-0.37;100.00
43878;BME280;29815;48.184;11.268;2023-01-25T09:42:38;96762.53;;;-0.38;100.00
43878;BME280;29815;48.184;11.268;2023-01-25T09:45:22;96764.19;;;-0.37;100.00
43878;BME280;29815;48.184;11.268;2023-01-25T09:48:15;96762.88;;;-0.41;100.00
43878;BME280;29815;48.184;11.268;2023-01-25T09:51:10;96769.16;;;-0.42;100.00
43878;BME280;29815;48.184;11.268;2023-01-25T09:57:10;96763.88;;;-0.42;100.00
43878;BME280;29815;48.184;11.268;2023-01-25T09:59:45;96760.22;;;-0.41;100.00
43878;BME280;29815;48.184;11.268;2023-01-25T10:02:32;96757.59;;;-0.41;100.00
43878;BME280;29815;48.184;11.268;2023-01-25T10:05:12;96759.22;;;-0.40;100.00
43878;BME280;29815;48.184;11.268;2023-01-25T10:07:54;96759.88;;;-0.38;100.00
43878;BME280;29815;48.184;11.268;2023-01-25T10:10:32;96758.06;;;-0.37;100.00
43878;BME280;29815;48.184;11.268;2023-01-25T10:13:08;96758.56;;;-0.33;100.00
43878;BME280;29815;48.184;11.268;2023-01-25T10:15:43;96750.78;;;-0.35;100.00
43878;BME280;29815;48.184;11.268;2023-01-25T10:18:24;96750.78;;;-0.35;100.00
43878;BME280;29815;48.184;11.268;2023-01-25T10:20:59;96753.59;;;-0.37;100.00
43878;BME280;29815;48.184;11.268;2023-01-25T10:26:54;96741.03;;;-0.35;100.00
43878;BME280;29815;48.184;11.268;2023-01-25T10:29:30;96737.41;;;-0.33;100.00
43878;BME280;29815;48.184;11.268;2023-01-25T10:32:12;96733.09;;;-0.35;100.00
43878;BME280;29815;48.184;11.268;2023-01-25T10:34:47;96732.44;;;-0.37;100.00
43878;BME280;29815;48.184;11.268;2023-01-25T10:37:27;96725.19;;;-0.43;100.00
43878;BME280;29815;48.184;11.268;2023-01-25T10:40:03;96718.59;;;-0.47;100.00
43878;BME280;29815;48.184;11.268;2023-01-25T10:42:46;96708.66;;;-0.45;100.00
43878;BME280;29815;48.184;11.268;2023-01-25T10:45:18;96715.94;;;-0.47;100.00
43878;BME280;29815;48.184;11.268;2023-01-25T10:47:51;96715.94;;;-0.47;100.00
43878;BME280;29815;48.184;11.268;2023-01-25T20:34:41;96135.13;;;-0.90;100.00
43878;BME280;29815;48.184;11.268;2023-01-25T20:37:10;96128.84;;;-0.89;100.00
43878;BME280;29815;48.184;11.268;2023-01-25T20:39:40;96129.66;;;-0.89;100.00
43878;BME280;29815;48.184;11.268;2023-01-25T20:42:09;96131.31;;;-0.88;100.00
43878;BME280;29815;48.184;11.268;2023-01-25T20:44:39;96121.75;;;-0.89;100.00
43878;BME280;29815;48.184;11.268;2023-01-25T20:47:08;96120.75;;;-0.88;100.00
43878;BME280;29815;48.184;11.268;2023-01-25T20:49:39;96120.94;;;-0.89;100.00
43878;BME280;29815;48.184;11.268;2023-01-25T20:52:09;96114.19;;;-0.92;100.00
43878;BME280;29815;48.184;11.268;2023-01-25T20:54:40;96111.53;;;-0.92;100.00
43878;BME280;29815;48.184;11.268;2023-01-25T20:57:10;96110.72;;;-0.92;100.00
43878;BME280;29815;48.184;11.268;2023-01-25T20:59:39;96103.78;;;-0.93;100.00
43878;BME280;29815;48.184;11.268;2023-01-25T21:02:09;96114.38;;;-0.93;100.00
43878;BME280;29815;48.184;11.268;2023-01-25T21:04:40;96113.53;;;-0.94;100.00
43878;BME280;29815;48.184;11.268;2023-01-25T21:07:10;96104.16;;;-0.96;100.00
43878;BME280;29815;48.184;11.268;2023-01-25T21:09:39;96101.53;;;-0.96;100.00
43878;BME280;29815;48.184;11.268;2023-01-25T21:12:10;96102.53;;;-0.97;100.00
43878;BME280;29815;48.184;11.268;2023-01-25T21:14:39;96106.81;;;-0.96;100.00
43878;BME280;29815;48.184;11.268;2023-01-25T21:17:08;96099.06;;;-0.98;100.00
43878;BME280;29815;48.184;11.268;2023-01-25T21:19:40;96087.84;;;-1.00;100.00
43878;BME280;29815;48.184;11.268;2023-01-25T21:22:10;96089.88;;;-1.02;100.00
43878;BME280;29815;48.184;11.268;2023-01-25T21:24:39;96088.84;;;-1.01;100.00
43878;BME280;29815;48.184;11.268;2023-01-25T21:27:09;96084.41;;;-1.00;100.00
43878;BME280;29815;48.184;11.268;2023-01-25T21:29:38;96080.94;;;-1.01;100.00
43878;BME280;29815;48.184;11.268;2023-01-25T21:32:07;96084.22;;;-0.99;100.00
43878;BME280;29815;48.184;11.268;2023-01-25T21:34:37;96081.38;;;-0.97;100.00
43878;BME280;29815;48.184;11.268;2023-01-25T21:37:08;96083.84;;;-0.96;100.00
43878;BME280;29815;48.184;11.268;2023-01-25T21:39:37;96078.19;;;-0.93;100.00
43878;BME280;29815;48.184;11.268;2023-01-25T21:42:07;96074.75;;;-0.93;100.00
43878;BME280;29815;48.184;11.268;2023-01-25T21:44:36;96073.28;;;-0.96;100.00
43878;BME280;29815;48.184;11.268;2023-01-25T21:47:23;96069.81;;;-0.96;100.00
43878;BME280;29815;48.184;11.268;2023-01-25T21:49:58;96069.00;;;-0.97;100.00
43878;BME280;29815;48.184;11.268;2023-01-25T21:52:46;96071.63;;;-0.97;100.00
43878;BME280;29815;48.184;11.268;2023-01-25T21:55:16;96067.53;;;-0.99;100.00
43878;BME280;29815;48.184;11.268;2023-01-25T21:57:45;96062.06;;;-0.98;100.00
43878;BME280;29815;48.184;11.268;2023-01-25T22:00:17;96061.06;;;-0.97;100.00
43878;BME280;29815;48.184;11.268;2023-01-25T22:02:49;96054.53;;;-1.01;100.00
43878;BME280;29815;48.184;11.268;2023-01-25T22:05:19;96059.16;;;-1.03;100.00
43878;BME280;29815;48.184;11.268;2023-01-25T22:07:50;96049.59;;;-1.04;100.00
43878;BME280;29815;48.184;11.268;2023-01-25T22:10:19;96053.44;;;-1.07;100.00
43878;BME280;29815;48.184;11.268;2023-01-25T22:12:49;96039.59;;;-1.09;100.00
43878;BME280;29815;48.184;11.268;2023-01-25T22:15:18;96043.69;;;-1.06;100.00
43878;BME280;29815;48.184;11.268;2023-01-25T22:17:47;96044.06;;;-1.09;100.00
43878;BME280;29815;48.184;11.268;2023-01-25T22:20:17;96044.69;;;-1.07;100.00
43878;BME280;29815;48.184;11.268;2023-01-25T22:22:50;96042.00;;;-1.14;100.00
43878;BME280;29815;48.184;11.268;2023-01-25T22:25:20;96036.06;;;-1.16;100.00
43878;BME280;29815;48.184;11.268;2023-01-25T22:27:54;96047.47;;;-1.15;100.00
43878;BME280;29815;48.184;11.268;2023-01-25T22:30:27;96036.34;;;-1.11;100.00
43878;BME280;29815;48.184;11.268;2023-01-25T22:32:58;96032.06;;;-1.12;100.00
43878;BME280;29815;48.184;11.268;2023-01-25T22:35:27;96033.69;;;-1.11;100.00
43878;BME280;29815;48.184;11.268;2023-01-25T22:37:58;96026.59;;;-1.10;100.00
43878;BME280;29815;48.184;11.268;2023-01-25T22:40:27;96029.41;;;-1.12;100.00
43878;BME280;29815;48.184;11.268;2023-01-25T22:42:57;96021.22;;;-1.17;100.00
43878;BME280;29815;48.184;11.268;2023-01-25T22:45:27;96018.59;;;-1.17;100.00
43878;BME280;29815;48.184;11.268;2023-01-25T22:47:57;96015.13;;;-1.17;100.00
43878;BME280;29815;48.184;11.268;2023-01-25T22:50:27;96017.31;;;-1.21;100.00
43878;BME280;29815;48.184;11.268;2023-01-25T22:52:57;96015.50;;;-1.20;100.00
43878;BME280;29815;48.184;11.268;2023-01-25T22:55:28;96005.94;;;-1.21;100.00
43878;BME280;29815;48.184;11.268;2023-01-25T22:57:58;96003.47;;;-1.23;100.00
43878;BME280;29815;48.184;11.268;2023-01-25T23:00:27;95997.19;;;-1.22;100.00
43878;BME280;29815;48.184;11.268;2023-01-25T23:02:57;95994.38;;;-1.20;100.00
43878;BME280;29815;48.184;11.268;2023-01-25T23:05:26;95991.72;;;-1.20;100.00
43878;BME280;29815;48.184;11.268;2023-01-25T23:07:58;95992.72;;;-1.21;100.00
43878;BME280;29815;48.184;11.268;2023-01-25T23:10:28;95981.34;;;-1.22;100.00
43878;BME280;29815;48.184;11.268;2023-01-25T23:12:57;95983.00;;;-1.21;100.00
43878;BME280;29815;48.184;11.268;2023-01-25T23:15:26;95983.19;;;-1.22;100.00
43878;BME280;29815;48.184;11.268;2023-01-25T23:17:56;95973.78;;;-1.25;100.00
43878;BME280;29815;48.184;11.268;2023-01-25T23:20:43;95981.09;;;-1.27;100.00
43878;BME280;29815;48.184;11.268;2023-01-25T23:23:14;95975.81;;;-1.27;100.00
43878;BME280;29815;48.184;11.268;2023-01-25T23:25:45;95974.97;;;-1.27;100.00
43878;BME280;29815;48.184;11.268;2023-01-25T23:28:15;95968.88;;;-1.28;100.00
43878;BME280;29815;48.184;11.268;2023-01-25T23:30:44;95968.69;;;-1.26;100.00
43878;BME280;29815;48.184;11.268;2023-01-25T23:33:14;95968.88;;;-1.28;100.00
43878;BME280;29815;48.184;11.268;2023-01-25T23:35:43;95963.97;;;-1.31;100.00
43878;BME280;29815;48.184;11.268;2023-01-25T23:38:14;95964.34;;;-1.34;100.00
43878;BME280;29815;48.184;11.268;2023-01-25T23:40:43;95962.69;;;-1.35;100.00
43878;BME280;29815;48.184;11.268;2023-01-25T23:43:13;95966.97;;;-1.34;100.00
43878;BME280;29815;48.184;11.268;2023-01-25T23:45:42;95964.34;;;-1.34;100.00
43878;BME280;29815;48.184;11.268;2023-01-25T23:48:12;95966.97;;;-1.34;100.00
43878;BME280;29815;48.184;11.268;2023-01-25T23:50:41;95964.34;;;-1.34;100.00
43878;BME280;29815;48.184;11.268;2023-01-25T23:53:11;95958.88;;;-1.32;100.00
43878;BME280;29815;48.184;11.268;2023-01-25T23:55:50;95952.78;;;-1.33;100.00
43878;BME280;29815;48.184;11.268;2023-01-25T23:58:22;95952.78;;;-1.33;100.00
